金門航空站 - ATIS

METAR RCBS 120330Z 04013KT 010V070 8000 FEW020 25/15 Q1019 NOSIG RMK A3010(Y)=

站台狀態:Offline
最後更新:2019-11-12 12:00:02